sensor_id;sensor_type;location;lat;lon;timestamp;pressure;altitude;pressure_sealevel;temperature;humidity
40948;BME280;49382;-25.924;28.194;2022-09-23T00:00:14;85286.27;;;16.09;30.49
40948;BME280;49382;-25.924;28.194;2022-09-23T00:02:40;85286.36;;;16.13;30.70
40948;BME280;49382;-25.924;28.194;2022-09-23T00:05:06;85284.73;;;14.98;32.46
40948;BME280;49382;-25.924;28.194;2022-09-23T00:07:31;85284.70;;;16.26;30.83
40948;BME280;49382;-25.924;28.194;2022-09-23T00:09:56;85281.99;;;16.56;29.99
40948;BME280;49382;-25.924;28.194;2022-09-23T00:12:22;85281.09;;;16.04;30.65
40948;BME280;49382;-25.924;28.194;2022-09-23T00:14:48;85274.07;;;16.34;29.80
40948;BME280;49382;-25.924;28.194;2022-09-23T00:17:13;85274.43;;;16.31;30.73
40948;BME280;49382;-25.924;28.194;2022-09-23T00:19:39;85272.65;;;16.10;30.50
40948;BME280;49382;-25.924;28.194;2022-09-23T00:22:04;85271.97;;;15.92;31.36
40948;BME280;49382;-25.924;28.194;2022-09-23T00:24:30;85270.15;;;15.65;31.65
40948;BME280;49382;-25.924;28.194;2022-09-23T00:26:55;85270.51;;;16.72;30.42
40948;BME280;49382;-25.924;28.194;2022-09-23T00:29:20;85269.83;;;16.60;30.65
40948;BME280;49382;-25.924;28.194;2022-09-23T00:31:46;85270.73;;;16.91;30.03
40948;BME280;49382;-25.924;28.194;2022-09-23T00:34:11;85269.34;;;16.81;30.18
40948;BME280;49382;-25.924;28.194;2022-09-23T00:36:37;85268.28;;;16.42;30.76
40948;BME280;49382;-25.924;28.194;2022-09-23T00:39:02;85265.92;;;16.93;30.23
40948;BME280;49382;-25.924;28.194;2022-09-23T00:41:27;85267.77;;;16.71;30.43
40948;BME280;49382;-25.924;28.194;2022-09-23T00:43:54;85266.80;;;14.86;32.22
40948;BME280;49382;-25.924;28.194;2022-09-23T00:46:21;85267.29;;;16.01;31.41
40948;BME280;49382;-25.924;28.194;2022-09-23T00:48:44;85261.26;;;15.54;31.92
40948;BME280;49382;-25.924;28.194;2022-09-23T00:51:13;85260.02;;;15.09;32.01
40948;BME280;49382;-25.924;28.194;2022-09-23T00:53:34;85258.35;;;14.48;32.92
40948;BME280;49382;-25.924;28.194;2022-09-23T00:56:02;85262.55;;;16.24;31.35
40948;BME280;49382;-25.924;28.194;2022-09-23T00:58:27;85258.72;;;16.48;30.97
40948;BME280;49382;-25.924;28.194;2022-09-23T01:00:51;85261.19;;;15.79;31.54
40948;BME280;49382;-25.924;28.194;2022-09-23T01:03:16;85259.40;;;16.11;30.62
40948;BME280;49382;-25.924;28.194;2022-09-23T01:05:41;85254.92;;;15.26;31.27
40948;BME280;49382;-25.924;28.194;2022-09-23T01:08:08;85254.27;;;16.41;29.86
40948;BME280;49382;-25.924;28.194;2022-09-23T01:10:39;85252.87;;;15.66;30.91
40948;BME280;49382;-25.924;28.194;2022-09-23T01:13:06;85256.71;;;15.91;30.23
40948;BME280;49382;-25.924;28.194;2022-09-23T01:15:27;85254.36;;;15.15;31.27
40948;BME280;49382;-25.924;28.194;2022-09-23T01:17:53;85258.12;;;15.78;30.58
40948;BME280;49382;-25.924;28.194;2022-09-23T01:22:44;85261.87;;;16.22;30.01
40948;BME280;49382;-25.924;28.194;2022-09-23T01:27:43;85255.60;;;14.28;32.26
40948;BME280;49382;-25.924;28.194;2022-09-23T01:30:03;85256.82;;;15.70;30.58
40948;BME280;49382;-25.924;28.194;2022-09-23T01:32:28;85254.92;;;15.09;30.80
40948;BME280;49382;-25.924;28.194;2022-09-23T01:34:48;85255.07;;;14.86;31.39
40948;BME280;49382;-25.924;28.194;2022-09-23T01:37:16;85253.58;;;15.25;30.58
40948;BME280;49382;-25.924;28.194;2022-09-23T01:39:39;85255.82;;;15.02;31.52
40948;BME280;49382;-25.924;28.194;2022-09-23T01:42:09;85255.12;;;14.43;32.23
40948;BME280;49382;-25.924;28.194;2022-09-23T01:44:31;85255.78;;;15.00;31.12
40948;BME280;49382;-25.924;28.194;2022-09-23T01:46:55;85256.59;;;14.60;31.07
40948;BME280;49382;-25.924;28.194;2022-09-23T01:49:24;85257.49;;;15.33;30.29
40948;BME280;49382;-25.924;28.194;2022-09-23T01:51:47;85256.92;;;14.46;31.06
40948;BME280;49382;-25.924;28.194;2022-09-23T01:54:13;85254.94;;;14.87;30.79
40948;BME280;49382;-25.924;28.194;2022-09-23T01:56:38;85254.40;;;15.47;31.17
40948;BME280;49382;-25.924;28.194;2022-09-23T01:59:07;85254.74;;;15.34;30.67
40948;BME280;49382;-25.924;28.194;2022-09-23T02:01:30;85258.98;;;15.77;29.85
40948;BME280;49382;-25.924;28.194;2022-09-23T02:03:54;85257.93;;;14.74;30.80
40948;BME280;49382;-25.924;28.194;2022-09-23T02:06:20;85257.52;;;14.61;30.75
40948;BME280;49382;-25.924;28.194;2022-09-23T02:08:44;85257.38;;;15.22;30.21
40948;BME280;49382;-25.924;28.194;2022-09-23T02:11:08;85261.41;;;14.93;30.79
40948;BME280;49382;-25.924;28.194;2022-09-23T02:13:36;85258.28;;;13.97;31.40
40948;BME280;49382;-25.924;28.194;2022-09-23T02:16:02;85259.80;;;14.99;30.97
40948;BME280;49382;-25.924;28.194;2022-09-23T02:18:25;85265.20;;;14.95;30.58
40948;BME280;49382;-25.924;28.194;2022-09-23T02:20:52;85267.29;;;15.98;29.89
40948;BME280;49382;-25.924;28.194;2022-09-23T02:23:18;85267.05;;;14.90;31.26
40948;BME280;49382;-25.924;28.194;2022-09-23T02:25:43;85267.11;;;14.81;30.93
40948;BME280;49382;-25.924;28.194;2022-09-23T02:28:10;85271.36;;;16.17;29.56
40948;BME280;49382;-25.924;28.194;2022-09-23T02:30:33;85271.33;;;15.95;29.42
40948;BME280;49382;-25.924;28.194;2022-09-23T02:33:01;85267.45;;;14.56;30.87
40948;BME280;49382;-25.924;28.194;2022-09-23T02:35:28;85271.97;;;16.08;29.18
40948;BME280;49382;-25.924;28.194;2022-09-23T02:37:50;85271.88;;;16.19;29.08
40948;BME280;49382;-25.924;28.194;2022-09-23T02:40:17;85274.22;;;15.50;29.61
40948;BME280;49382;-25.924;28.194;2022-09-23T02:42:42;85273.88;;;15.84;29.77
40948;BME280;49382;-25.924;28.194;2022-09-23T02:45:03;85277.60;;;14.61;31.06
40948;BME280;49382;-25.924;28.194;2022-09-23T02:47:30;85283.28;;;15.11;30.22
40948;BME280;49382;-25.924;28.194;2022-09-23T02:49:54;85284.68;;;16.67;28.77
40948;BME280;49382;-25.924;28.194;2022-09-23T02:52:19;85281.22;;;15.52;30.00
40948;BME280;49382;-25.924;28.194;2022-09-23T02:54:45;85285.15;;;15.92;29.82
40948;BME280;49382;-25.924;28.194;2022-09-23T02:57:10;85286.98;;;16.16;29.64
40948;BME280;49382;-25.924;28.194;2022-09-23T02:59:35;85287.92;;;15.89;29.88
40948;BME280;49382;-25.924;28.194;2022-09-23T03:02:13;85289.16;;;15.69;30.37
40948;BME280;49382;-25.924;28.194;2022-09-23T03:04:31;85290.61;;;14.52;30.80
40948;BME280;49382;-25.924;28.194;2022-09-23T03:06:59;85294.65;;;15.22;30.29
40948;BME280;49382;-25.924;28.194;2022-09-23T03:09:21;85294.94;;;15.46;29.46
40948;BME280;49382;-25.924;28.194;2022-09-23T03:11:47;85295.72;;;15.87;29.60
40948;BME280;49382;-25.924;28.194;2022-09-23T03:14:13;85295.05;;;14.50;30.59
40948;BME280;49382;-25.924;28.194;2022-09-23T03:16:40;85298.09;;;16.15;28.93
40948;BME280;49382;-25.924;28.194;2022-09-23T03:19:08;85314.21;;;14.06;31.23
40948;BME280;49382;-25.924;28.194;2022-09-23T03:21:27;85325.38;;;14.54;31.14
40948;BME280;49382;-25.924;28.194;2022-09-23T03:23:50;85324.17;;;14.32;33.46
40948;BME280;49382;-25.924;28.194;2022-09-23T03:26:18;85329.77;;;13.63;34.75
40948;BME280;49382;-25.924;28.194;2022-09-23T03:28:41;85329.87;;;14.40;34.06
40948;BME280;49382;-25.924;28.194;2022-09-23T03:31:05;85326.68;;;14.89;32.96
40948;BME280;49382;-25.924;28.194;2022-09-23T03:33:31;85326.43;;;14.41;33.15
40948;BME280;49382;-25.924;28.194;2022-09-23T03:35:58;85327.35;;;13.91;33.28
40948;BME280;49382;-25.924;28.194;2022-09-23T03:38:23;85328.60;;;15.28;32.09
40948;BME280;49382;-25.924;28.194;2022-09-23T03:40:47;85328.54;;;15.29;32.08
40948;BME280;49382;-25.924;28.194;2022-09-23T03:43:12;85332.71;;;14.18;33.89
40948;BME280;49382;-25.924;28.194;2022-09-23T03:45:38;85334.48;;;13.90;33.66
40948;BME280;49382;-25.924;28.194;2022-09-23T03:48:03;85338.98;;;13.93;34.45
40948;BME280;49382;-25.924;28.194;2022-09-23T03:50:29;85335.94;;;13.69;34.60
40948;BME280;49382;-25.924;28.194;2022-09-23T03:52:54;85345.03;;;12.58;35.69
40948;BME280;49382;-25.924;28.194;2022-09-23T03:55:20;85352.66;;;13.20;35.94
40948;BME280;49382;-25.924;28.194;2022-09-23T03:57:45;85344.78;;;14.26;32.74
40948;BME280;49382;-25.924;28.194;2022-09-23T04:00:12;85347.83;;;13.73;34.28
40948;BME280;49382;-25.924;28.194;2022-09-23T04:02:36;85352.81;;;14.75;33.10
40948;BME280;49382;-25.924;28.194;2022-09-23T04:05:02;85355.52;;;14.64;32.17
40948;BME280;49382;-25.924;28.194;2022-09-23T04:07:27;85354.45;;;14.58;33.17
40948;BME280;49382;-25.924;28.194;2022-09-23T04:09:52;85357.00;;;14.09;33.11
40948;BME280;49382;-25.924;28.194;2022-09-23T04:12:17;85354.47;;;14.71;32.40
40948;BME280;49382;-25.924;28.194;2022-09-23T04:14:44;85359.42;;;14.18;33.33
40948;BME280;49382;-25.924;28.194;2022-09-23T04:17:09;85364.69;;;15.45;31.87
40948;BME280;49382;-25.924;28.194;2022-09-23T04:19:34;85368.92;;;13.85;34.48
40948;BME280;49382;-25.924;28.194;2022-09-23T04:22:00;85372.96;;;14.48;34.16
40948;BME280;49382;-25.924;28.194;2022-09-23T04:24:25;85371.95;;;14.74;34.06
40948;BME280;49382;-25.924;28.194;2022-09-23T04:26:51;85370.09;;;15.10;33.83
40948;BME280;49382;-25.924;28.194;2022-09-23T04:29:15;85381.58;;;14.55;33.96
40948;BME280;49382;-25.924;28.194;2022-09-23T04:31:41;85383.05;;;14.58;34.02
40948;BME280;49382;-25.924;28.194;2022-09-23T04:34:06;85382.13;;;13.31;35.41
40948;BME280;49382;-25.924;28.194;2022-09-23T04:36:31;85391.17;;;15.86;31.83
40948;BME280;49382;-25.924;28.194;2022-09-23T04:38:57;85391.80;;;15.40;31.97
40948;BME280;49382;-25.924;28.194;2022-09-23T04:41:22;85393.77;;;14.58;33.18
40948;BME280;49382;-25.924;28.194;2022-09-23T04:43:47;85394.11;;;16.05;32.48
40948;BME280;49382;-25.924;28.194;2022-09-23T04:46:14;85399.12;;;16.25;32.32
40948;BME280;49382;-25.924;28.194;2022-09-23T04:48:39;85396.28;;;15.39;34.05
40948;BME280;49382;-25.924;28.194;2022-09-23T04:51:03;85396.87;;;16.12;33.24
40948;BME280;49382;-25.924;28.194;2022-09-23T04:53:28;85398.47;;;16.51;32.07
40948;BME280;49382;-25.924;28.194;2022-09-23T04:55:53;85404.84;;;15.71;32.73
40948;BME280;49382;-25.924;28.194;2022-09-23T04:58:19;85411.19;;;17.09;31.43
40948;BME280;49382;-25.924;28.194;2022-09-23T05:00:44;85414.96;;;16.20;32.03
40948;BME280;49382;-25.924;28.194;2022-09-23T05:03:09;85418.61;;;16.97;32.34
40948;BME280;49382;-25.924;28.194;2022-09-23T05:05:35;85418.29;;;17.24;31.26
40948;BME280;49382;-25.924;28.194;2022-09-23T05:08:00;85423.09;;;17.65;29.65
40948;BME280;49382;-25.924;28.194;2022-09-23T05:10:25;85424.77;;;18.47;28.87
40948;BME280;49382;-25.924;28.194;2022-09-23T05:12:51;85429.35;;;17.95;30.99
40948;BME280;49382;-25.924;28.194;2022-09-23T05:15:16;85435.66;;;18.67;29.12
40948;BME280;49382;-25.924;28.194;2022-09-23T05:17:42;85441.56;;;18.65;28.08
40948;BME280;49382;-25.924;28.194;2022-09-23T05:20:07;85446.59;;;17.69;29.95
40948;BME280;49382;-25.924;28.194;2022-09-23T05:22:32;85450.22;;;19.25;28.22
40948;BME280;49382;-25.924;28.194;2022-09-23T05:24:57;85448.08;;;18.86;27.39
40948;BME280;49382;-25.924;28.194;2022-09-23T05:27:23;85448.51;;;18.89;26.96
40948;BME280;49382;-25.924;28.194;2022-09-23T05:29:48;85450.03;;;18.27;26.78
40948;BME280;49382;-25.924;28.194;2022-09-23T05:32:14;85446.59;;;19.65;24.97
40948;BME280;49382;-25.924;28.194;2022-09-23T05:34:39;85454.45;;;20.64;25.22
40948;BME280;49382;-25.924;28.194;2022-09-23T05:37:05;85460.49;;;19.44;27.13
40948;BME280;49382;-25.924;28.194;2022-09-23T05:39:30;85456.14;;;19.82;26.43
40948;BME280;49382;-25.924;28.194;2022-09-23T05:41:55;85456.65;;;19.90;26.16
40948;BME280;49382;-25.924;28.194;2022-09-23T05:44:21;85456.60;;;19.69;27.37
40948;BME280;49382;-25.924;28.194;2022-09-23T05:46:47;85458.30;;;20.43;26.72
40948;BME280;49382;-25.924;28.194;2022-09-23T05:49:12;85461.90;;;20.98;25.88
40948;BME280;49382;-25.924;28.194;2022-09-23T05:51:37;85462.93;;;20.62;26.59
40948;BME280;49382;-25.924;28.194;2022-09-23T05:54:03;85462.09;;;20.42;26.47
40948;BME280;49382;-25.924;28.194;2022-09-23T05:56:28;85460.33;;;20.27;26.27
40948;BME280;49382;-25.924;28.194;2022-09-23T05:58:54;85457.68;;;20.43;26.16
40948;BME280;49382;-25.924;28.194;2022-09-23T06:01:20;85460.81;;;20.64;24.73
40948;BME280;49382;-25.924;28.194;2022-09-23T06:03:46;85467.10;;;20.61;25.18
40948;BME280;49382;-25.924;28.194;2022-09-23T06:06:11;85465.89;;;20.87;25.53
40948;BME280;49382;-25.924;28.194;2022-09-23T06:08:34;85463.85;;;21.95;25.04
40948;BME280;49382;-25.924;28.194;2022-09-23T06:11:04;85463.11;;;21.21;24.69
40948;BME280;49382;-25.924;28.194;2022-09-23T06:13:25;85468.32;;;22.01;24.25
40948;BME280;49382;-25.924;28.194;2022-09-23T06:15:56;85470.97;;;20.79;27.24
40948;BME280;49382;-25.924;28.194;2022-09-23T06:18:16;85475.49;;;21.15;27.21
40948;BME280;49382;-25.924;28.194;2022-09-23T06:20:41;85477.99;;;22.50;26.20
40948;BME280;49382;-25.924;28.194;2022-09-23T06:23:09;85472.30;;;22.05;26.16
40948;BME280;49382;-25.924;28.194;2022-09-23T06:25:33;85473.52;;;22.37;27.45
40948;BME280;49382;-25.924;28.194;2022-09-23T06:27:58;85476.71;;;22.26;26.25
40948;BME280;49382;-25.924;28.194;2022-09-23T06:30:23;85484.23;;;23.47;25.54
40948;BME280;49382;-25.924;28.194;2022-09-23T06:32:50;85480.56;;;22.10;25.52
40948;BME280;49382;-25.924;28.194;2022-09-23T06:35:14;85479.65;;;22.37;27.42
40948;BME280;49382;-25.924;28.194;2022-09-23T06:37:40;85477.52;;;22.00;26.15
40948;BME280;49382;-25.924;28.194;2022-09-23T06:40:06;85480.41;;;22.11;25.39
40948;BME280;49382;-25.924;28.194;2022-09-23T06:42:30;85482.24;;;22.71;24.62
40948;BME280;49382;-25.924;28.194;2022-09-23T06:44:56;85487.60;;;23.36;26.18
40948;BME280;49382;-25.924;28.194;2022-09-23T06:47:21;85489.20;;;23.02;24.29
40948;BME280;49382;-25.924;28.194;2022-09-23T06:49:46;85492.13;;;24.03;22.82
40948;BME280;49382;-25.924;28.194;2022-09-23T06:52:12;85489.20;;;23.86;23.19
40948;BME280;49382;-25.924;28.194;2022-09-23T06:54:37;85492.52;;;24.34;23.95
40948;BME280;49382;-25.924;28.194;2022-09-23T06:57:03;85491.90;;;23.00;23.22
40948;BME280;49382;-25.924;28.194;2022-09-23T06:59:28;85488.95;;;24.20;21.53
40948;BME280;49382;-25.924;28.194;2022-09-23T07:01:54;85489.93;;;24.43;21.56
40948;BME280;49382;-25.924;28.194;2022-09-23T07:04:18;85488.57;;;24.45;20.82
40948;BME280;49382;-25.924;28.194;2022-09-23T07:06:44;85489.78;;;24.06;22.48
40948;BME280;49382;-25.924;28.194;2022-09-23T07:09:09;85488.65;;;23.89;20.87
40948;BME280;49382;-25.924;28.194;2022-09-23T07:11:35;85488.57;;;25.16;20.57
40948;BME280;49382;-25.924;28.194;2022-09-23T07:14:00;85485.06;;;25.71;21.53
40948;BME280;49382;-25.924;28.194;2022-09-23T07:16:25;85485.35;;;24.13;21.67
40948;BME280;49382;-25.924;28.194;2022-09-23T07:18:51;85488.50;;;25.28;23.01
40948;BME280;49382;-25.924;28.194;2022-09-23T07:21:18;85487.09;;;25.47;21.29
40948;BME280;49382;-25.924;28.194;2022-09-23T07:23:42;85487.01;;;24.82;20.47
40948;BME280;49382;-25.924;28.194;2022-09-23T07:26:08;85486.51;;;25.76;21.84
40948;BME280;49382;-25.924;28.194;2022-09-23T07:28:34;85485.90;;;25.57;21.15
40948;BME280;49382;-25.924;28.194;2022-09-23T07:31:03;85484.46;;;26.09;18.96
40948;BME280;49382;-25.924;28.194;2022-09-23T07:33:25;85485.56;;;26.49;16.95
40948;BME280;49382;-25.924;28.194;2022-09-23T07:35:50;85487.01;;;25.08;18.78
40948;BME280;49382;-25.924;28.194;2022-09-23T07:38:16;85489.94;;;26.17;20.03
40948;BME280;49382;-25.924;28.194;2022-09-23T07:40:41;85489.35;;;26.83;20.30
40948;BME280;49382;-25.924;28.194;2022-09-23T07:43:07;85488.27;;;27.19;19.14
40948;BME280;49382;-25.924;28.194;2022-09-23T07:45:32;85484.77;;;26.83;21.95
40948;BME280;49382;-25.924;28.194;2022-09-23T07:47:58;85482.72;;;26.18;19.32
40948;BME280;49382;-25.924;28.194;2022-09-23T07:50:23;85484.37;;;26.35;19.76
40948;BME280;49382;-25.924;28.194;2022-09-23T07:52:49;85484.51;;;26.72;19.54
40948;BME280;49382;-25.924;28.194;2022-09-23T07:55:14;85488.08;;;28.18;17.97
40948;BME280;49382;-25.924;28.194;2022-09-23T07:57:40;85486.33;;;27.96;17.84
40948;BME280;49382;-25.924;28.194;2022-09-23T08:00:07;85485.41;;;28.16;16.29
40948;BME280;49382;-25.924;28.194;2022-09-23T08:02:32;85480.82;;;28.55;16.74
40948;BME280;49382;-25.924;28.194;2022-09-23T08:04:57;85477.28;;;28.41;16.30
40948;BME280;49382;-25.924;28.194;2022-09-23T08:07:23;85474.37;;;28.42;16.18
40948;BME280;49382;-25.924;28.194;2022-09-23T08:09:48;85469.47;;;28.50;15.24
40948;BME280;49382;-25.924;28.194;2022-09-23T08:12:16;85465.92;;;28.17;17.16
40948;BME280;49382;-25.924;28.194;2022-09-23T08:14:39;85466.33;;;28.39;18.34
40948;BME280;49382;-25.924;28.194;2022-09-23T08:17:04;85464.84;;;27.32;15.52
40948;BME280;49382;-25.924;28.194;2022-09-23T08:19:30;85459.97;;;27.72;16.90
40948;BME280;49382;-25.924;28.194;2022-09-23T08:21:56;85460.18;;;28.27;18.51
40948;BME280;49382;-25.924;28.194;2022-09-23T08:24:22;85457.72;;;28.62;18.35
40948;BME280;49382;-25.924;28.194;2022-09-23T08:26:47;85454.66;;;28.44;15.91
40948;BME280;49382;-25.924;28.194;2022-09-23T08:29:13;85451.23;;;27.54;17.06
40948;BME280;49382;-25.924;28.194;2022-09-23T08:31:37;85455.96;;;28.65;16.74
40948;BME280;49382;-25.924;28.194;2022-09-23T08:34:02;85453.22;;;28.69;16.09
40948;BME280;49382;-25.924;28.194;2022-09-23T08:36:28;85453.35;;;28.86;15.48
40948;BME280;49382;-25.924;28.194;2022-09-23T08:38:53;85447.77;;;28.87;15.80
40948;BME280;49382;-25.924;28.194;2022-09-23T08:41:24;85445.11;;;28.43;16.33
40948;BME280;49382;-25.924;28.194;2022-09-23T08:43:48;85441.16;;;28.95;16.29
40948;BME280;49382;-25.924;28.194;2022-09-23T08:46:10;85443.56;;;28.69;15.85
40948;BME280;49382;-25.924;28.194;2022-09-23T08:48:38;85439.56;;;28.31;15.07
40948;BME280;49382;-25.924;28.194;2022-09-23T08:51:04;85426.99;;;27.90;17.09
40948;BME280;49382;-25.924;28.194;2022-09-23T08:53:27;85425.60;;;26.09;17.97
40948;BME280;49382;-25.924;28.194;2022-09-23T08:55:51;85430.57;;;27.97;17.46
40948;BME280;49382;-25.924;28.194;2022-09-23T08:58:28;85426.16;;;27.55;16.56
40948;BME280;49382;-25.924;28.194;2022-09-23T09:00:42;85430.33;;;28.79;18.26
40948;BME280;49382;-25.924;28.194;2022-09-23T09:03:18;85424.98;;;27.93;16.34
40948;BME280;49382;-25.924;28.194;2022-09-23T09:05:32;85425.07;;;28.85;16.09
40948;BME280;49382;-25.924;28.194;2022-09-23T09:08:00;85426.31;;;28.51;17.17
40948;BME280;49382;-25.924;28.194;2022-09-23T09:10:26;85426.79;;;28.68;17.03
40948;BME280;49382;-25.924;28.194;2022-09-23T09:12:51;85430.78;;;28.77;17.61
40948;BME280;49382;-25.924;28.194;2022-09-23T09:15:18;85427.56;;;28.38;15.35
40948;BME280;49382;-25.924;28.194;2022-09-23T09:17:46;85422.15;;;28.17;15.33
40948;BME280;49382;-25.924;28.194;2022-09-23T09:20:17;85416.96;;;28.88;15.63
40948;BME280;49382;-25.924;28.194;2022-09-23T09:22:41;85414.40;;;28.04;14.30
40948;BME280;49382;-25.924;28.194;2022-09-23T09:25:04;85410.74;;;27.86;16.21
40948;BME280;49382;-25.924;28.194;2022-09-23T09:27:23;85410.55;;;28.15;16.49
40948;BME280;49382;-25.924;28.194;2022-09-23T09:29:50;85408.92;;;28.34;17.02
40948;BME280;49382;-25.924;28.194;2022-09-23T09:32:23;85401.33;;;28.07;16.73
40948;BME280;49382;-25.924;28.194;2022-09-23T09:34:43;85400.49;;;28.38;17.79
40948;BME280;49382;-25.924;28.194;2022-09-23T09:37:07;85393.07;;;28.75;17.69
40948;BME280;49382;-25.924;28.194;2022-09-23T09:39:29;85390.71;;;28.82;17.25
40948;BME280;49382;-25.924;28.194;2022-09-23T09:41:55;85386.28;;;28.75;15.76
40948;BME280;49382;-25.924;28.194;2022-09-23T09:44:24;85382.47;;;28.61;16.90
40948;BME280;49382;-25.924;28.194;2022-09-23T09:46:53;85378.27;;;28.41;16.45
40948;BME280;49382;-25.924;28.194;2022-09-23T09:49:18;85371.36;;;28.57;16.35
40948;BME280;49382;-25.924;28.194;2022-09-23T09:51:38;85369.08;;;28.14;16.01
40948;BME280;49382;-25.924;28.194;2022-09-23T09:56:32;85359.94;;;27.83;15.50
40948;BME280;49382;-25.924;28.194;2022-09-23T09:58:57;85354.29;;;28.01;16.55
40948;BME280;49382;-25.924;28.194;2022-09-23T10:01:23;85347.08;;;27.11;16.28
40948;BME280;49382;-25.924;28.194;2022-09-23T10:03:46;85345.29;;;27.98;16.46
40948;BME280;49382;-25.924;28.194;2022-09-23T10:06:18;85342.25;;;28.22;16.46
40948;BME280;49382;-25.924;28.194;2022-09-23T10:08:37;85337.42;;;27.22;17.05
40948;BME280;49382;-25.924;28.194;2022-09-23T10:11:04;85334.96;;;28.20;15.52
40948;BME280;49382;-25.924;28.194;2022-09-23T10:13:27;85331.23;;;28.43;15.62
40948;BME280;49382;-25.924;28.194;2022-09-23T10:15:53;85327.71;;;27.97;16.63
40948;BME280;49382;-25.924;28.194;2022-09-23T10:18:19;85322.22;;;28.27;16.33
40948;BME280;49382;-25.924;28.194;2022-09-23T10:20:43;85317.84;;;27.73;16.25
40948;BME280;49382;-25.924;28.194;2022-09-23T10:23:11;85307.81;;;27.63;14.76
40948;BME280;49382;-25.924;28.194;2022-09-23T10:25:34;85304.49;;;27.23;13.93
40948;BME280;49382;-25.924;28.194;2022-09-23T10:27:59;85298.23;;;27.35;14.40
40948;BME280;49382;-25.924;28.194;2022-09-23T10:30:26;85299.10;;;27.52;13.75
40948;BME280;49382;-25.924;28.194;2022-09-23T10:32:51;85302.67;;;27.87;15.00
40948;BME280;49382;-25.924;28.194;2022-09-23T10:35:17;85300.22;;;27.36;14.84
40948;BME280;49382;-25.924;28.194;2022-09-23T10:37:44;85298.17;;;27.62;16.52
40948;BME280;49382;-25.924;28.194;2022-09-23T10:40:13;85296.72;;;27.15;15.32
40948;BME280;49382;-25.924;28.194;2022-09-23T10:42:42;85290.70;;;27.72;15.60
40948;BME280;49382;-25.924;28.194;2022-09-23T10:45:04;85290.05;;;27.20;15.28
40948;BME280;49382;-25.924;28.194;2022-09-23T10:47:31;85288.55;;;27.37;14.73
40948;BME280;49382;-25.924;28.194;2022-09-23T10:49:57;85280.24;;;26.91;14.15
40948;BME280;49382;-25.924;28.194;2022-09-23T10:52:25;85276.59;;;26.28;15.66
40948;BME280;49382;-25.924;28.194;2022-09-23T10:54:45;85270.61;;;26.59;14.15
40948;BME280;49382;-25.924;28.194;2022-09-23T10:57:14;85269.09;;;25.76;15.31
40948;BME280;49382;-25.924;28.194;2022-09-23T10:59:42;85270.39;;;26.74;14.47
40948;BME280;49382;-25.924;28.194;2022-09-23T11:02:06;85270.38;;;27.33;14.15
40948;BME280;49382;-25.924;28.194;2022-09-23T11:07:01;85262.68;;;27.34;12.54
40948;BME280;49382;-25.924;28.194;2022-09-23T11:09:24;85257.74;;;26.78;13.42
40948;BME280;49382;-25.924;28.194;2022-09-23T11:11:47;85255.87;;;26.86;14.24
40948;BME280;49382;-25.924;28.194;2022-09-23T11:14:14;85252.42;;;26.97;14.69
40948;BME280;49382;-25.924;28.194;2022-09-23T11:16:39;85238.82;;;27.07;11.87
40948;BME280;49382;-25.924;28.194;2022-09-23T11:21:33;85230.67;;;27.71;12.06
40948;BME280;49382;-25.924;28.194;2022-09-23T11:23:58;85228.06;;;26.19;12.10
40948;BME280;49382;-25.924;28.194;2022-09-23T11:26:22;85220.17;;;25.58;15.27
40948;BME280;49382;-25.924;28.194;2022-09-23T11:31:11;85217.07;;;26.74;15.16
40948;BME280;49382;-25.924;28.194;2022-09-23T11:33:39;85207.23;;;25.89;13.03
40948;BME280;49382;-25.924;28.194;2022-09-23T11:35:57;85208.57;;;26.38;14.72
40948;BME280;49382;-25.924;28.194;2022-09-23T11:38:21;85209.59;;;27.33;14.53
40948;BME280;49382;-25.924;28.194;2022-09-23T11:40:46;85202.58;;;26.06;14.04
40948;BME280;49382;-25.924;28.194;2022-09-23T11:43:16;85202.35;;;27.32;12.96
40948;BME280;49382;-25.924;28.194;2022-09-23T11:45:40;85203.19;;;27.23;14.49
40948;BME280;49382;-25.924;28.194;2022-09-23T11:48:06;85201.65;;;25.98;14.60
40948;BME280;49382;-25.924;28.194;2022-09-23T11:50:31;85197.01;;;26.08;14.08
40948;BME280;49382;-25.924;28.194;2022-09-23T11:52:54;85194.08;;;27.12;14.01
40948;BME280;49382;-25.924;28.194;2022-09-23T11:55:19;85188.46;;;26.56;14.84
40948;BME280;49382;-25.924;28.194;2022-09-23T11:57:46;85184.49;;;27.28;13.76
40948;BME280;49382;-25.924;28.194;2022-09-23T12:00:13;85189.58;;;27.09;14.42
40948;BME280;49382;-25.924;28.194;2022-09-23T12:02:41;85186.08;;;26.70;15.06
40948;BME280;49382;-25.924;28.194;2022-09-23T12:05:02;85181.83;;;27.47;14.22
40948;BME280;49382;-25.924;28.194;2022-09-23T12:07:29;85176.77;;;26.77;13.10
40948;BME280;49382;-25.924;28.194;2022-09-23T12:09:56;85175.27;;;26.54;13.59
40948;BME280;49382;-25.924;28.194;2022-09-23T12:12:19;85170.86;;;26.71;12.15
40948;BME280;49382;-25.924;28.194;2022-09-23T12:14:49;85169.35;;;26.98;12.73
40948;BME280;49382;-25.924;28.194;2022-09-23T12:17:15;85171.58;;;26.68;13.83
40948;BME280;49382;-25.924;28.194;2022-09-23T12:19:44;85169.21;;;26.57;13.70
40948;BME280;49382;-25.924;28.194;2022-09-23T12:22:07;85167.38;;;26.97;12.92
40948;BME280;49382;-25.924;28.194;2022-09-23T12:26:51;85160.61;;;25.88;12.29
40948;BME280;49382;-25.924;28.194;2022-09-23T12:29:14;85156.86;;;26.96;11.83
40948;BME280;49382;-25.924;28.194;2022-09-23T12:31:39;85159.06;;;27.82;11.44
40948;BME280;49382;-25.924;28.194;2022-09-23T12:36:31;85153.50;;;26.52;12.55
40948;BME280;49382;-25.924;28.194;2022-09-23T12:39:01;85153.75;;;25.99;13.35
40948;BME280;49382;-25.924;28.194;2022-09-23T12:41:27;85149.01;;;26.51;12.13
40948;BME280;49382;-25.924;28.194;2022-09-23T12:43:51;85149.63;;;27.18;11.96
40948;BME280;49382;-25.924;28.194;2022-09-23T12:46:18;85146.80;;;27.28;11.37
40948;BME280;49382;-25.924;28.194;2022-09-23T12:48:42;85143.03;;;26.38;11.42